sensor_id;sensor_type;location;lat;lon;timestamp;pressure;altitude;pressure_sealevel;temperature;humidity
58598;BME280;64549;46.910;16.844;2022-12-10T00:04:50;98104.59;;;4.23;100.00
58598;BME280;64549;46.910;16.844;2022-12-10T00:09:50;98103.06;;;4.31;100.00
58598;BME280;64549;46.910;16.844;2022-12-10T00:14:50;98121.91;;;4.16;100.00
58598;BME280;64549;46.910;16.844;2022-12-10T00:19:51;98116.22;;;4.11;100.00
58598;BME280;64549;46.910;16.844;2022-12-10T00:24:51;98125.63;;;4.04;100.00
58598;BME280;64549;46.910;16.844;2022-12-10T00:29:52;98126.47;;;3.94;100.00
58598;BME280;64549;46.910;16.844;2022-12-10T00:34:52;98145.94;;;3.92;100.00
58598;BME280;64549;46.910;16.844;2022-12-10T00:39:53;98159.97;;;4.02;100.00
58598;BME280;64549;46.910;16.844;2022-12-10T00:44:53;98156.91;;;3.97;100.00
58598;BME280;64549;46.910;16.844;2022-12-10T00:49:53;98162.75;;;4.20;100.00
58598;BME280;64549;46.910;16.844;2022-12-10T00:54:54;98165.34;;;4.01;100.00
58598;BME280;64549;46.910;16.844;2022-12-10T00:59:54;98160.81;;;4.03;100.00
58598;BME280;64549;46.910;16.844;2022-12-10T01:04:55;98178.09;;;3.95;100.00
58598;BME280;64549;46.910;16.844;2022-12-10T01:09:55;98174.81;;;4.13;100.00
58598;BME280;64549;46.910;16.844;2022-12-10T01:14:56;98172.09;;;3.83;100.00
58598;BME280;64549;46.910;16.844;2022-12-10T01:19:56;98178.34;;;3.92;100.00
58598;BME280;64549;46.910;16.844;2022-12-10T01:24:57;98183.34;;;3.95;100.00
58598;BME280;64549;46.910;16.844;2022-12-10T01:29:57;98188.91;;;4.02;100.00
58598;BME280;64549;46.910;16.844;2022-12-10T01:34:58;98183.34;;;3.95;100.00
58598;BME280;64549;46.910;16.844;2022-12-10T01:39:58;98180.31;;;3.90;100.00
58598;BME280;64549;46.910;16.844;2022-12-10T01:45:02;98180.34;;;4.10;100.00
58598;BME280;64549;46.910;16.844;2022-12-10T01:50:06;98180.16;;;3.92;100.00
58598;BME280;64549;46.910;16.844;2022-12-10T02:00:49;98218.63;;;3.83;100.00
58598;BME280;64549;46.910;16.844;2022-12-10T02:06:00;98222.72;;;4.07;100.00
58598;BME280;64549;46.910;16.844;2022-12-10T02:11:19;98214.75;;;3.87;100.00
58598;BME280;64549;46.910;16.844;2022-12-10T02:16:37;98198.25;;;3.85;100.00
58598;BME280;64549;46.910;16.844;2022-12-10T02:21:40;98188.72;;;3.84;100.00
58598;BME280;64549;46.910;16.844;2022-12-10T02:32:23;98216.34;;;3.68;100.00
58598;BME280;64549;46.910;16.844;2022-12-10T02:37:39;98225.41;;;3.54;100.00
58598;BME280;64549;46.910;16.844;2022-12-10T02:42:44;98213.09;;;3.55;100.00
58598;BME280;64549;46.910;16.844;2022-12-10T02:47:48;98207.66;;;3.46;100.00
58598;BME280;64549;46.910;16.844;2022-12-10T02:52:50;98202.34;;;3.37;100.00
58598;BME280;64549;46.910;16.844;2022-12-10T03:03:11;98219.09;;;3.36;100.00
58598;BME280;64549;46.910;16.844;2022-12-10T03:08:30;98234.53;;;3.29;100.00
58598;BME280;64549;46.910;16.844;2022-12-10T03:18:56;98244.47;;;3.25;100.00
58598;BME280;64549;46.910;16.844;2022-12-10T03:23:57;98243.91;;;3.43;100.00
58598;BME280;64549;46.910;16.844;2022-12-10T03:29:14;98244.63;;;3.55;100.00
58598;BME280;64549;46.910;16.844;2022-12-10T03:34:16;98241.94;;;3.45;100.00
58598;BME280;64549;46.910;16.844;2022-12-10T03:39:16;98250.59;;;3.57;100.00
58598;BME280;64549;46.910;16.844;2022-12-10T03:44:28;98247.56;;;3.30;100.00
58598;BME280;64549;46.910;16.844;2022-12-10T03:49:29;98242.63;;;3.37;100.00
58598;BME280;64549;46.910;16.844;2022-12-10T03:54:30;98255.94;;;3.45;100.00
58598;BME280;64549;46.910;16.844;2022-12-10T03:59:30;98264.31;;;3.39;100.00
58598;BME280;64549;46.910;16.844;2022-12-10T04:04:31;98265.88;;;3.42;100.00
58598;BME280;64549;46.910;16.844;2022-12-10T04:09:31;98271.53;;;3.16;100.00
58598;BME280;64549;46.910;16.844;2022-12-10T04:14:32;98273.56;;;3.33;100.00
58598;BME280;64549;46.910;16.844;2022-12-10T04:20:08;98284.91;;;3.13;100.00
58598;BME280;64549;46.910;16.844;2022-12-10T04:25:29;98288.09;;;3.16;100.00
58598;BME280;64549;46.910;16.844;2022-12-10T04:30:48;98292.00;;;3.22;100.00
58598;BME280;64549;46.910;16.844;2022-12-10T04:35:49;98285.34;;;3.18;100.00
58598;BME280;64549;46.910;16.844;2022-12-10T04:40:49;98292.47;;;3.06;100.00
58598;BME280;64549;46.910;16.844;2022-12-10T04:45:49;98290.84;;;2.93;100.00
58598;BME280;64549;46.910;16.844;2022-12-10T04:50:50;98273.88;;;2.98;100.00
58598;BME280;64549;46.910;16.844;2022-12-10T04:55:50;98271.88;;;3.11;100.00
58598;BME280;64549;46.910;16.844;2022-12-10T05:00:51;98269.91;;;3.03;100.00
58598;BME280;64549;46.910;16.844;2022-12-10T05:05:51;98274.47;;;3.23;100.00
58598;BME280;64549;46.910;16.844;2022-12-10T05:10:52;98287.59;;;3.23;100.00
58598;BME280;64549;46.910;16.844;2022-12-10T05:15:52;98294.84;;;3.09;100.00
58598;BME280;64549;46.910;16.844;2022-12-10T05:20:53;98303.16;;;3.14;100.00
58598;BME280;64549;46.910;16.844;2022-12-10T05:26:17;98307.53;;;3.25;100.00
58598;BME280;64549;46.910;16.844;2022-12-10T05:31:24;98301.06;;;3.29;100.00
58598;BME280;64549;46.910;16.844;2022-12-10T05:36:29;98301.16;;;3.06;100.00
58598;BME280;64549;46.910;16.844;2022-12-10T05:41:33;98307.25;;;3.07;100.00
58598;BME280;64549;46.910;16.844;2022-12-10T05:46:35;98297.63;;;3.29;100.00
58598;BME280;64549;46.910;16.844;2022-12-10T05:51:37;98282.72;;;3.18;100.00
58598;BME280;64549;46.910;16.844;2022-12-10T05:56:37;98267.81;;;2.86;100.00
58598;BME280;64549;46.910;16.844;2022-12-10T06:01:38;98271.50;;;2.94;100.00
58598;BME280;64549;46.910;16.844;2022-12-10T06:06:39;98286.03;;;2.99;100.00
58598;BME280;64549;46.910;16.844;2022-12-10T06:11:40;98299.78;;;2.91;100.00
58598;BME280;64549;46.910;16.844;2022-12-10T06:16:41;98291.41;;;2.97;100.00
58598;BME280;64549;46.910;16.844;2022-12-10T06:21:41;98297.44;;;2.88;100.00
58598;BME280;64549;46.910;16.844;2022-12-10T06:26:42;98296.94;;;3.15;100.00
58598;BME280;64549;46.910;16.844;2022-12-10T06:31:42;98314.00;;;3.42;100.00
58598;BME280;64549;46.910;16.844;2022-12-10T06:36:43;98316.56;;;3.32;100.00
58598;BME280;64549;46.910;16.844;2022-12-10T06:41:43;98289.72;;;3.29;100.00
58598;BME280;64549;46.910;16.844;2022-12-10T06:46:45;98282.25;;;2.91;100.00
58598;BME280;64549;46.910;16.844;2022-12-10T06:51:47;98291.56;;;2.84;100.00
58598;BME280;64549;46.910;16.844;2022-12-10T06:56:48;98291.63;;;3.05;100.00
58598;BME280;64549;46.910;16.844;2022-12-10T07:01:48;98289.34;;;3.01;100.00
58598;BME280;64549;46.910;16.844;2022-12-10T07:06:49;98293.09;;;3.19;100.00
58598;BME280;64549;46.910;16.844;2022-12-10T07:11:50;98308.78;;;3.10;100.00
58598;BME280;64549;46.910;16.844;2022-12-10T07:16:51;98312.78;;;3.46;100.00
58598;BME280;64549;46.910;16.844;2022-12-10T07:21:54;98299.72;;;3.35;100.00
58598;BME280;64549;46.910;16.844;2022-12-10T07:26:55;98305.50;;;3.50;100.00
58598;BME280;64549;46.910;16.844;2022-12-10T07:31:56;98290.81;;;3.47;100.00
58598;BME280;64549;46.910;16.844;2022-12-10T07:36:59;98273.78;;;3.42;100.00
58598;BME280;64549;46.910;16.844;2022-12-10T07:42:01;98271.09;;;3.53;100.00
58598;BME280;64549;46.910;16.844;2022-12-10T07:47:08;98272.16;;;3.82;100.00
58598;BME280;64549;46.910;16.844;2022-12-10T07:52:09;98290.25;;;3.96;100.00
58598;BME280;64549;46.910;16.844;2022-12-10T07:57:10;98310.06;;;4.01;100.00
58598;BME280;64549;46.910;16.844;2022-12-10T08:02:11;98317.97;;;3.79;100.00
58598;BME280;64549;46.910;16.844;2022-12-10T08:07:11;98313.38;;;3.71;100.00
58598;BME280;64549;46.910;16.844;2022-12-10T08:12:15;98323.06;;;3.50;100.00
58598;BME280;64549;46.910;16.844;2022-12-10T08:17:16;98319.03;;;3.45;100.00
58598;BME280;64549;46.910;16.844;2022-12-10T08:22:18;98298.31;;;3.31;100.00
58598;BME280;64549;46.910;16.844;2022-12-10T08:27:22;98304.28;;;3.54;100.00
58598;BME280;64549;46.910;16.844;2022-12-10T08:32:23;98294.41;;;3.46;100.00
58598;BME280;64549;46.910;16.844;2022-12-10T08:37:23;98281.50;;;3.43;100.00
58598;BME280;64549;46.910;16.844;2022-12-10T08:42:25;98278.31;;;3.18;100.00
58598;BME280;64549;46.910;16.844;2022-12-10T08:47:27;98282.66;;;3.08;100.00
58598;BME280;64549;46.910;16.844;2022-12-10T08:52:29;98266.06;;;3.07;100.00
58598;BME280;64549;46.910;16.844;2022-12-10T08:57:32;98285.63;;;3.15;100.00
58598;BME280;64549;46.910;16.844;2022-12-10T09:02:32;98288.38;;;3.13;100.00
58598;BME280;64549;46.910;16.844;2022-12-10T09:07:33;98291.41;;;2.97;100.00
58598;BME280;64549;46.910;16.844;2022-12-10T09:12:34;98290.78;;;3.26;100.00
58598;BME280;64549;46.910;16.844;2022-12-10T09:17:39;98296.50;;;3.10;100.00
58598;BME280;64549;46.910;16.844;2022-12-10T09:22:43;98303.03;;;3.16;100.00
58598;BME280;64549;46.910;16.844;2022-12-10T09:39:50;98277.22;;;3.42;100.00
58598;BME280;64549;46.910;16.844;2022-12-10T09:55:43;98273.78;;;3.42;100.00
58598;BME280;64549;46.910;16.844;2022-12-10T10:00:47;98269.81;;;3.47;100.00
58598;BME280;64549;46.910;16.844;2022-12-10T10:05:59;98271.53;;;3.37;100.00
58598;BME280;64549;46.910;16.844;2022-12-10T10:11:02;98260.47;;;3.43;100.00
58598;BME280;64549;46.910;16.844;2022-12-10T10:16:30;98245.84;;;3.51;100.00
58598;BME280;64549;46.910;16.844;2022-12-10T10:21:39;98232.22;;;3.36;100.00
58598;BME280;64549;46.910;16.844;2022-12-10T10:26:41;98236.56;;;3.46;100.00
58598;BME280;64549;46.910;16.844;2022-12-10T10:31:57;98229.16;;;3.30;100.00
58598;BME280;64549;46.910;16.844;2022-12-10T10:37:20;98234.06;;;3.24;100.00
58598;BME280;64549;46.910;16.844;2022-12-10T10:42:36;98227.94;;;3.13;100.00
58598;BME280;64549;46.910;16.844;2022-12-10T10:47:38;98230.56;;;3.13;100.00
58598;BME280;64549;46.910;16.844;2022-12-10T10:52:41;98209.22;;;3.06;100.00
58598;BME280;64549;46.910;16.844;2022-12-10T10:57:43;98202.50;;;3.14;100.00
58598;BME280;64549;46.910;16.844;2022-12-10T11:02:46;98192.16;;;3.01;100.00
58598;BME280;64549;46.910;16.844;2022-12-10T11:07:46;98197.84;;;2.96;100.00
58598;BME280;64549;46.910;16.844;2022-12-10T11:13:18;98202.31;;;3.05;100.00
58598;BME280;64549;46.910;16.844;2022-12-10T11:18:30;98189.94;;;2.96;100.00
58598;BME280;64549;46.910;16.844;2022-12-10T11:23:38;98178.09;;;3.02;100.00
58598;BME280;64549;46.910;16.844;2022-12-10T11:34:20;98163.69;;;3.17;100.00
58598;BME280;64549;46.910;16.844;2022-12-10T11:45:26;98155.97;;;3.26;100.00
58598;BME280;64549;46.910;16.844;2022-12-10T11:50:53;98164.84;;;3.03;100.00
58598;BME280;64549;46.910;16.844;2022-12-10T11:56:21;98160.22;;;2.95;100.00
58598;BME280;64549;46.910;16.844;2022-12-10T12:11:32;98155.75;;;3.07;100.00
58598;BME280;64549;46.910;16.844;2022-12-10T12:16:59;98151.78;;;2.92;100.00
58598;BME280;64549;46.910;16.844;2022-12-10T12:22:12;98161.88;;;2.97;100.00
58598;BME280;64549;46.910;16.844;2022-12-10T12:32:29;98170.41;;;3.10;100.00
58598;BME280;64549;46.910;16.844;2022-12-10T12:37:40;98157.25;;;3.31;100.00
58598;BME280;64549;46.910;16.844;2022-12-10T12:43:03;98156.47;;;3.19;100.00
58598;BME280;64549;46.910;16.844;2022-12-10T12:53:14;98160.84;;;3.30;100.00
58598;BME280;64549;46.910;16.844;2022-12-10T12:58:56;98161.56;;;3.11;100.00
58598;BME280;64549;46.910;16.844;2022-12-10T13:04:00;98156.97;;;3.03;100.00
58598;BME280;64549;46.910;16.844;2022-12-10T13:09:26;98163.56;;;2.98;100.00
58598;BME280;64549;46.910;16.844;2022-12-10T13:15:16;98164.06;;;2.91;100.00
58598;BME280;64549;46.910;16.844;2022-12-10T13:36:26;98163.66;;;2.53;100.00
58598;BME280;64549;46.910;16.844;2022-12-10T13:41:41;98161.47;;;2.26;100.00
58598;BME280;64549;46.910;16.844;2022-12-10T13:52:19;98166.38;;;2.30;100.00
58598;BME280;64549;46.910;16.844;2022-12-10T16:02:56;98103.22;;;1.78;100.00
58598;BME280;64549;46.910;16.844;2022-12-10T18:02:58;98050.78;;;2.11;100.00
58598;BME280;64549;46.910;16.844;2022-12-10T23:50:50;97949.00;;;2.04;100.00
